地図

経路データ

SID SEASON NUMBER BASIN SUBBASIN NAME ISO_TIME NATURE LAT LON WMO_WIND WMO_PRES WMO_AGENCY TRACK_TYPE DIST2LAND LANDFALL IFLAG USA_AGENCY USA_ATCF_ID USA_LAT USA_LON USA_RECORD USA_STATUS USA_WIND USA_PRES USA_SSHS USA_R34_NE USA_R34_SE USA_R34_SW USA_R34_NW USA_R50_NE USA_R50_SE USA_R50_SW USA_R50_NW USA_R64_NE USA_R64_SE USA_R64_SW USA_R64_NW USA_POCI USA_ROCI USA_RMW USA_EYE TOKYO_LAT TOKYO_LON TOKYO_GRADE TOKYO_WIND TOKYO_PRES TOKYO_R50_DIR TOKYO_R50_LONG TOKYO_R50_SHORT TOKYO_R30_DIR TOKYO_R30_LONG TOKYO_R30_SHORT TOKYO_LAND CMA_LAT CMA_LON CMA_CAT CMA_WIND CMA_PRES HKO_LAT HKO_LON HKO_CAT HKO_WIND HKO_PRES NEWDELHI_LAT NEWDELHI_LON NEWDELHI_GRADE NEWDELHI_WIND NEWDELHI_PRES NEWDELHI_CI NEWDELHI_DP NEWDELHI_POCI REUNION_LAT REUNION_LON REUNION_TYPE REUNION_WIND REUNION_PRES REUNION_TNUM REUNION_CI REUNION_RMW REUNION_R34_NE REUNION_R34_SE REUNION_R34_SW REUNION_R34_NW REUNION_R50_NE REUNION_R50_SE REUNION_R50_SW REUNION_R50_NW REUNION_R64_NE REUNION_R64_SE REUNION_R64_SW REUNION_R64_NW BOM_LAT BOM_LON BOM_TYPE BOM_WIND BOM_PRES BOM_TNUM BOM_CI BOM_RMW BOM_R34_NE BOM_R34_SE BOM_R34_SW BOM_R34_NW BOM_R50_NE BOM_R50_SE BOM_R50_SW BOM_R50_NW BOM_R64_NE BOM_R64_SE BOM_R64_SW BOM_R64_NW BOM_ROCI BOM_POCI BOM_EYE BOM_POS_METHOD BOM_PRES_METHOD NADI_LAT NADI_LON NADI_CAT NADI_WIND NADI_PRES WELLINGTON_LAT WELLINGTON_LON WELLINGTON_WIND WELLINGTON_PRES DS824_LAT DS824_LON DS824_STAGE DS824_WIND DS824_PRES TD9636_LAT TD9636_LON TD9636_STAGE TD9636_WIND TD9636_PRES TD9635_LAT TD9635_LON TD9635_WIND TD9635_PRES TD9635_ROCI NEUMANN_LAT NEUMANN_LON NEUMANN_CLASS NEUMANN_WIND NEUMANN_PRES MLC_LAT MLC_LON MLC_CLASS MLC_WIND MLC_PRES USA_GUST BOM_GUST BOM_GUST_PER REUNION_GUST REUNION_GUST_PER USA_SEAHGT USA_SEARAD_NE USA_SEARAD_SE USA_SEARAD_SW USA_SEARAD_NW STORM_SPEED STORM_DIR
1940225N15127 1940 45 WP MM NOT_NAMED 1940-08-11 12:00:00 NR 15.0000 127.000 main 305 233 __________O___ -1 15.0000 127.000 4 14 241
1940225N15127 1940 45 WP MM NOT_NAMED 1940-08-11 15:00:00 NR 14.6554 126.360 main 233 147 __________P___ -1 14.6554 126.360 4 14 241
1940225N15127 1940 45 WP MM NOT_NAMED 1940-08-11 18:00:00 NR 14.3080 125.707 main 147 76 __________P___ -1 14.3080 125.707 4 15 242
1940225N15127 1940 45 WP MM NOT_NAMED 1940-08-11 21:00:00 NR 13.9566 125.025 main 65 0 __________P___ -1 13.9566 125.025 4 15 243
1940225N15127 1940 45 WP MM NOT_NAMED 1940-08-12 00:00:00 NR 13.6000 124.300 main 0 0 __________O___ -1 13.6000 124.300 4 16 244
1940225N15127 1940 45 WP MM NOT_NAMED 1940-08-12 03:00:00 NR 13.2475 123.524 main 0 0 __________P___ -1 13.2475 123.524 4 17 247
1940225N15127 1940 45 WP MM NOT_NAMED 1940-08-12 06:00:00 NR 12.9530 122.725 main 22 22 __________P___ -1 12.9530 122.725 4 16 253
1940225N15127 1940 45 WP MM NOT_NAMED 1940-08-12 09:00:00 NR 12.7819 121.939 main 39 0 __________P___ -1 12.7819 121.939 4 15 264
1940225N15127 1940 45 WP MM NOT_NAMED 1940-08-12 12:00:00 NR 12.8000 121.200 main 0 0 __________O___ -1 12.8000 121.200 4 14 286
1940225N15127 1940 45 WP MM NOT_NAMED 1940-08-12 15:00:00 NR 13.1857 120.541 main 0 0 __________P___ -1 13.1857 120.541 4 16 307
1940225N15127 1940 45 WP MM NOT_NAMED 1940-08-12 18:00:00 NR 13.7414 119.930 main 54 54 __________P___ -1 13.7414 119.930 4 16 314
1940225N15127 1940 45 WP MM NOT_NAMED 1940-08-12 21:00:00 NR 14.3015 119.354 main 93 93 __________P___ -1 14.3015 119.354 4 15 311
1940225N15127 1940 45 WP MM NOT_NAMED 1940-08-13 00:00:00 NR 14.7000 118.800 main 140 140 __________O___ -1 14.7000 118.800 4 11 290
1940225N15127 1940 45 WP MM NOT_NAMED 1940-08-13 03:00:00 NR 14.6951 118.243 main 198 198 __________P___ -1 14.6951 118.243 4 11 260
1940225N15127 1940 45 WP MM NOT_NAMED 1940-08-13 06:00:00 NR 14.5144 117.710 main 257 257 __________P___ -1 14.5144 117.710 4 11 246
1940225N15127 1940 45 WP MM NOT_NAMED 1940-08-13 09:00:00 NR 14.2515 117.197 main 315 315 __________P___ -1 14.2515 117.197 4 11 242
1940225N15127 1940 45 WP MM NOT_NAMED 1940-08-13 12:00:00 NR 14.0000 116.700 main 377 377 __________O___ -1 14.0000 116.700 4 10 246
1940225N15127 1940 45 WP MM NOT_NAMED 1940-08-13 15:00:00 NR 13.8307 116.218 main 435 435 __________P___ -1 13.8307 116.218 4 10 252
1940225N15127 1940 45 WP MM NOT_NAMED 1940-08-13 18:00:00 NR 13.6993 115.749 main 489 489 __________P___ -1 13.6993 115.749 4 9 258
1940225N15127 1940 45 WP MM NOT_NAMED 1940-08-13 21:00:00 NR 13.6432 115.280 main 520 520 __________P___ -1 13.6432 115.280 4 9 270
1940225N15127 1940 45 WP MM NOT_NAMED 1940-08-14 00:00:00 NR 13.7000 114.800 main 572 531 __________O___ -1 13.7000 114.800 4 10 285
1940225N15127 1940 45 WP MM NOT_NAMED 1940-08-14 03:00:00 NR 13.8978 114.282 main 531 484 __________P___ -1 13.8978 114.282 4 11 296
1940225N15127 1940 45 WP MM NOT_NAMED 1940-08-14 06:00:00 NR 14.2075 113.751 main 486 427 __________P___ -1 14.2075 113.751 4 12 304
1940225N15127 1940 45 WP MM NOT_NAMED 1940-08-14 09:00:00 NR 14.5884 113.219 main 427 386 __________P___ -1 14.5884 113.219 4 13 308
1940225N15127 1940 45 WP MM NOT_NAMED 1940-08-14 12:00:00 NR 15.0000 112.700 main 386 342 __________O___ -1 15.0000 112.700 4 13 312
1940225N15127 1940 45 WP MM NOT_NAMED 1940-08-14 15:00:00 NR 15.4839 112.188 main 344 309 __________P___ -1 15.4839 112.188 4 14 315
1940225N15127 1940 45 WP MM NOT_NAMED 1940-08-14 18:00:00 NR 15.9724 111.692 main 313 262 __________P___ -1 15.9724 111.692 4 13 314
1940225N15127 1940 45 WP MM NOT_NAMED 1940-08-14 21:00:00 NR 16.3746 111.225 main 256 213 __________P___ -1 16.3746 111.225 4 11 306
1940225N15127 1940 45 WP MM NOT_NAMED 1940-08-15 00:00:00 NR 16.6000 110.800 main 213 202 __________O___ -1 16.6000 110.800 4 8 276
1940225N15127 1940 45 WP MM NOT_NAMED 1940-08-15 03:00:00 NR 16.4509 110.437 main 204 170 __________P___ -1 16.4509 110.437 4 8 235
1940225N15127 1940 45 WP MM NOT_NAMED 1940-08-15 06:00:00 NR 16.1367 110.117 main 163 117 __________P___ -1 16.1367 110.117 4 9 223
1940225N15127 1940 45 WP MM NOT_NAMED 1940-08-15 09:00:00 NR 15.8041 109.813 main 117 78 __________P___ -1 15.8041 109.813 4 8 228
1940225N15127 1940 45 WP MM NOT_NAMED 1940-08-15 12:00:00 NR 15.6000 109.500 main 78 54 __________O___ -1 15.6000 109.500 4 7 265
1940225N15127 1940 45 WP MM NOT_NAMED 1940-08-15 15:00:00 NR 15.7405 109.116 main 54 39 __________P___ -1 15.7405 109.116 4 9 299
1940225N15127 1940 45 WP MM NOT_NAMED 1940-08-15 18:00:00 NR 16.0228 108.722 main 39 30 __________P___ -1 16.0228 108.722 4 10 310
1940225N15127 1940 45 WP MM NOT_NAMED 1940-08-15 21:00:00 NR 16.3687 108.341 main 30 30 __________P___ -1 16.3687 108.341 4 10 314
1940225N15127 1940 45 WP MM NOT_NAMED 1940-08-16 00:00:00 NR 16.7000 108.000 main 39 30 __________O___ -1 16.7000 108.000 4 8 311
1940225N15127 1940 45 WP MM NOT_NAMED 1940-08-16 03:00:00 NR 16.8831 107.723 main 35 30 __________P___ -1 16.8831 107.723 4 6 305
1940225N15127 1940 45 WP MM NOT_NAMED 1940-08-16 06:00:00 NR 17.0421 107.489 main 30 24 __________P___ -1 17.0421 107.489 4 5 308
1940225N15127 1940 45 WP MM NOT_NAMED 1940-08-16 09:00:00 NR 17.2051 107.286 main 24 15 __________P___ -1 17.2051 107.286 4 5 314
1940225N15127 1940 45 WP MM NOT_NAMED 1940-08-16 12:00:00 NR 17.4000 107.100 main 30 30 __________O___ -1 17.4000 107.100 4 6 322
1940225N15127 1940 45 WP MM NOT_NAMED 1940-08-16 15:00:00 NR 17.6477 106.921 main 30 30 __________P___ -1 17.6477 106.921 4 6 328
1940225N15127 1940 45 WP MM NOT_NAMED 1940-08-16 18:00:00 NR 17.9403 106.746 main 21 21 __________P___ -1 17.9403 106.746 4 7 332
1940225N15127 1940 45 WP MM NOT_NAMED 1940-08-16 21:00:00 NR 18.2627 106.573 main 30 23 __________P___ -1 18.2627 106.573 4 7 334
1940225N15127 1940 45 WP MM NOT_NAMED 1940-08-17 00:00:00 NR 18.6000 106.400 main 45 __________O___ -1 18.6000 106.400 7 8 334

デジタル台風データ・検索

IBTrACS Databaseについて

本データベースは、米国NOAAが公開する1842年以降の世界の熱帯低気圧のベストトラックデータアーカイブInternational Best Track Archive for Climate Stewardship (IBTrACS)を、ウェブで閲覧しやすい形式に変換したものです。

最終更新日:2021-11-26